createdAt,value
2019-02-16T00:02:54.557Z,8.29
2019-02-16T00:06:00.333Z,8.51
2019-02-16T00:09:06.938Z,8.51
2019-02-16T00:12:13.629Z,8.47
2019-02-16T00:15:19.472Z,8.46
2019-02-16T00:18:25.267Z,8.29
2019-02-16T00:21:31.019Z,8.18
2019-02-16T00:24:36.884Z,8.20
2019-02-16T00:27:42.750Z,8.14
2019-02-16T00:30:48.532Z,8.16
2019-02-16T00:33:54.433Z,7.52
2019-02-16T00:37:00.197Z,7.86
2019-02-16T00:40:06.227Z,8.08
2019-02-16T00:43:12.003Z,7.93
2019-02-16T00:46:17.790Z,8.13
2019-02-16T00:49:23.615Z,8.03
2019-02-16T00:52:29.402Z,8.08
2019-02-16T00:55:35.214Z,8.14
2019-02-16T00:58:40.986Z,8.02
2019-02-16T01:01:46.980Z,8.20
2019-02-16T01:04:52.778Z,8.09
2019-02-16T01:07:58.525Z,8.11
2019-02-16T01:11:04.395Z,8.25
2019-02-16T01:14:10.164Z,7.81
2019-02-16T01:17:16.009Z,7.82
2019-02-16T01:20:21.881Z,7.99
2019-02-16T01:23:27.669Z,7.99
2019-02-16T01:26:33.442Z,7.74
2019-02-16T01:29:39.240Z,7.96
2019-02-16T01:32:44.998Z,7.59
2019-02-16T01:35:50.753Z,7.11
2019-02-16T01:38:56.505Z,7.58
2019-02-16T01:42:02.286Z,7.71
2019-02-16T01:45:09.661Z,7.75
2019-02-16T01:48:15.474Z,7.87
2019-02-16T01:51:21.269Z,7.93
2019-02-16T01:54:27.070Z,8.06
2019-02-16T01:57:32.812Z,8.07
2019-02-16T02:00:38.597Z,8.00
2019-02-16T02:03:44.370Z,7.99
2019-02-16T02:06:50.208Z,7.97
2019-02-16T02:09:55.977Z,7.96
2019-02-16T02:13:01.802Z,7.99
2019-02-16T02:16:07.592Z,8.04
2019-02-16T02:19:13.406Z,7.96
2019-02-16T02:22:19.171Z,8.03
2019-02-16T02:25:25.613Z,8.00
2019-02-16T02:28:31.370Z,7.96
2019-02-16T02:31:37.682Z,7.94
2019-02-16T02:34:43.474Z,7.93
2019-02-16T02:37:49.257Z,7.96
2019-02-16T02:40:55.040Z,7.95
2019-02-16T02:44:00.814Z,7.66
2019-02-16T02:47:06.671Z,7.93
2019-02-16T02:50:12.426Z,7.98
2019-02-16T02:53:18.219Z,8.01
2019-02-16T02:56:23.972Z,7.98
2019-02-16T02:59:29.768Z,7.75
2019-02-16T03:02:35.637Z,7.87
2019-02-16T03:05:41.459Z,7.92
2019-02-16T03:08:47.337Z,7.85
2019-02-16T03:11:53.163Z,7.62
2019-02-16T03:14:58.925Z,7.68
2019-02-16T03:18:04.795Z,7.49
2019-02-16T03:21:10.584Z,7.56
2019-02-16T03:24:16.369Z,7.13
2019-02-16T03:28:12.173Z,7.54
2019-02-16T03:32:00.754Z,7.38
2019-02-16T03:35:39.341Z,7.41
2019-02-16T03:39:17.732Z,7.51
2019-02-16T03:42:23.501Z,7.59
2019-02-16T03:45:29.288Z,7.57
2019-02-16T03:48:35.089Z,7.71
2019-02-16T03:51:40.895Z,7.48
2019-02-16T03:54:46.676Z,7.21
2019-02-16T03:57:52.437Z,7.53
2019-02-16T04:00:58.196Z,7.04
2019-02-16T04:04:04.039Z,7.40
2019-02-16T04:07:09.829Z,7.59
2019-02-16T04:10:15.579Z,7.51
2019-02-16T04:13:21.351Z,7.57
2019-02-16T04:16:27.130Z,7.65
2019-02-16T04:19:32.897Z,7.58
2019-02-16T04:22:38.727Z,7.61
2019-02-16T04:25:44.476Z,7.67
2019-02-16T04:28:50.364Z,7.62
2019-02-16T04:31:56.131Z,7.58
2019-02-16T04:35:01.911Z,7.60
2019-02-16T04:38:07.668Z,7.71
2019-02-16T04:41:13.542Z,7.55
2019-02-16T04:44:20.442Z,7.60
2019-02-16T04:47:26.203Z,7.62
2019-02-16T04:50:32.005Z,7.67
2019-02-16T04:53:37.853Z,7.43
2019-02-16T04:56:43.740Z,7.68
2019-02-16T04:59:49.550Z,7.54
2019-02-16T05:02:55.312Z,7.49
2019-02-16T05:06:01.111Z,7.51
2019-02-16T05:09:07.844Z,7.39
2019-02-16T05:12:13.633Z,7.31
2019-02-16T05:15:19.492Z,7.37
2019-02-16T05:18:25.255Z,7.36
2019-02-16T05:21:31.048Z,7.12
2019-02-16T05:24:36.888Z,7.37
2019-02-16T05:27:42.645Z,7.32
2019-02-16T05:30:48.392Z,7.32
2019-02-16T05:33:54.163Z,7.32
2019-02-16T05:36:59.934Z,7.36
2019-02-16T05:40:06.621Z,7.32
2019-02-16T05:43:12.389Z,7.37
2019-02-16T05:46:18.204Z,7.35
2019-02-16T05:49:23.997Z,7.29
2019-02-16T05:52:29.757Z,7.06
2019-02-16T05:55:35.589Z,6.98
2019-02-16T05:58:41.327Z,7.14
2019-02-16T06:01:53.530Z,7.05
2019-02-16T06:04:54.602Z,6.89
2019-02-16T06:08:00.464Z,6.88
2019-02-16T06:11:06.361Z,6.98
2019-02-16T06:14:12.132Z,6.89
2019-02-16T06:17:17.909Z,7.33
2019-02-16T06:20:23.749Z,7.45
2019-02-16T06:23:29.548Z,7.25
2019-02-16T06:26:35.366Z,7.58
2019-02-16T06:29:41.164Z,7.63
2019-02-16T06:32:46.953Z,7.52
2019-02-16T06:36:06.638Z,8.31
2019-02-16T06:39:12.439Z,8.82
2019-02-16T06:42:18.237Z,9.03
2019-02-16T06:45:24.006Z,9.29
2019-02-16T06:48:29.787Z,9.48
2019-02-16T06:51:35.566Z,9.71
2019-02-16T06:54:41.429Z,10.02
2019-02-16T06:57:49.840Z,10.28
2019-02-16T07:00:55.607Z,9.73
2019-02-16T07:04:01.384Z,9.28
2019-02-16T07:07:07.735Z,10.18
2019-02-16T07:10:13.552Z,10.49
2019-02-16T07:13:19.329Z,10.74
2019-02-16T07:16:49.771Z,10.93
2019-02-16T07:19:57.772Z,10.67
2019-02-16T07:23:03.557Z,10.86
2019-02-16T07:26:09.313Z,11.17
2019-02-16T07:29:15.151Z,11.47
2019-02-16T07:32:20.975Z,11.61
2019-02-16T07:35:26.735Z,11.82
2019-02-16T07:38:32.541Z,12.01
2019-02-16T07:41:38.351Z,12.21
2019-02-16T07:45:08.812Z,12.23
2019-02-16T07:48:27.772Z,12.48
2019-02-16T07:51:44.708Z,12.53
2019-02-16T07:55:09.324Z,12.78
2019-02-16T07:58:34.022Z,13.12
2019-02-16T08:02:05.560Z,13.27
2019-02-16T08:05:36.197Z,13.42
2019-02-16T08:08:56.034Z,13.47
2019-02-16T08:12:23.948Z,13.51
2019-02-16T08:15:47.170Z,13.55
2019-02-16T08:18:59.429Z,13.68
2019-02-16T08:22:24.076Z,13.85
2019-02-16T08:25:51.535Z,13.55
2019-02-16T08:29:11.285Z,13.93
2019-02-16T08:32:23.560Z,14.05
2019-02-16T08:35:56.994Z,14.21
2019-02-16T08:39:08.822Z,14.32
2019-02-16T08:42:36.506Z,14.57
2019-02-16T08:45:51.731Z,13.90
2019-02-16T08:49:31.812Z,14.26
2019-02-16T08:52:55.209Z,14.75
2019-02-16T08:56:38.246Z,14.65
2019-02-16T09:00:06.202Z,14.32
2019-02-16T09:03:29.341Z,14.92
2019-02-16T09:06:52.642Z,15.04
2019-02-16T09:10:15.940Z,15.01
2019-02-16T09:13:46.723Z,15.16
2019-02-16T09:17:14.400Z,15.39
2019-02-16T09:20:38.971Z,15.57
2019-02-16T09:24:12.606Z,15.89
2019-02-16T09:27:43.058Z,15.69
2019-02-16T09:31:07.662Z,15.54
2019-02-16T09:34:31.276Z,15.37
2019-02-16T09:38:05.264Z,15.87
2019-02-16T09:41:23.583Z,16.15
2019-02-16T09:44:54.067Z,16.07
2019-02-16T09:48:24.844Z,16.58
2019-02-16T09:51:48.119Z,16.73
2019-02-16T09:55:18.613Z,16.69
2019-02-16T09:58:34.543Z,16.21
2019-02-16T10:02:08.252Z,16.28
2019-02-16T10:05:31.662Z,15.95
2019-02-16T10:08:50.513Z,16.57
2019-02-16T10:12:08.474Z,15.93
2019-02-16T10:15:33.190Z,15.81
2019-02-16T10:18:46.512Z,16.32
2019-02-16T10:22:04.620Z,16.61
2019-02-16T10:25:39.360Z,16.77
2019-02-16T10:29:06.803Z,16.74
2019-02-16T10:32:37.196Z,16.39
2019-02-16T10:36:08.067Z,17.11
2019-02-16T10:39:41.772Z,16.20
2019-02-16T10:43:20.293Z,16.66
2019-02-16T10:46:50.798Z,16.11
2019-02-16T10:50:18.492Z,15.21
2019-02-16T10:54:01.286Z,16.08
2019-02-16T10:57:29.047Z,15.97
2019-02-16T11:01:00.305Z,16.27
2019-02-16T11:04:38.187Z,16.67
2019-02-16T11:07:56.177Z,16.92
2019-02-16T11:11:11.758Z,17.10
2019-02-16T11:14:30.734Z,16.96
2019-02-16T11:17:55.847Z,17.12
2019-02-16T11:21:32.981Z,16.83
2019-02-16T11:25:09.690Z,17.07
2019-02-16T11:28:46.602Z,16.99
2019-02-16T11:32:09.885Z,16.53
2019-02-16T11:35:43.483Z,16.28
2019-02-16T11:39:11.046Z,15.02
2019-02-16T11:42:23.356Z,15.47
2019-02-16T11:46:03.152Z,15.49
2019-02-16T11:49:25.161Z,15.88
2019-02-16T11:52:56.160Z,16.79
2019-02-16T11:56:11.874Z,17.16
2019-02-16T11:59:36.527Z,16.83
2019-02-16T12:03:19.162Z,16.52
2019-02-16T12:06:33.751Z,15.62
2019-02-16T12:10:01.488Z,16.13
2019-02-16T12:13:32.192Z,16.46
2019-02-16T12:16:55.474Z,15.96
2019-02-16T12:20:18.724Z,16.18
2019-02-16T12:23:33.559Z,16.53
2019-02-16T12:26:58.332Z,15.90
2019-02-16T12:30:26.263Z,16.13
2019-02-16T12:33:52.717Z,16.13
2019-02-16T12:37:16.185Z,15.79
2019-02-16T12:40:43.739Z,15.97
2019-02-16T12:44:02.401Z,14.67
2019-02-16T12:47:33.073Z,15.45
2019-02-16T12:50:59.505Z,16.24
2019-02-16T12:54:22.563Z,14.42
2019-02-16T12:57:50.114Z,14.47
2019-02-16T13:01:20.523Z,14.94
2019-02-16T13:04:45.120Z,14.82
2019-02-16T13:07:58.477Z,14.58
2019-02-16T13:11:26.279Z,14.06
2019-02-16T13:15:00.322Z,14.46
2019-02-16T13:18:30.904Z,14.47
2019-02-16T13:21:40.847Z,14.59
2019-02-16T13:24:53.886Z,14.73
2019-02-16T13:28:24.353Z,14.95
2019-02-16T13:31:40.446Z,15.37
2019-02-16T13:35:10.863Z,15.39
2019-02-16T13:38:30.317Z,15.46
2019-02-16T13:41:46.443Z,15.56
2019-02-16T13:45:07.545Z,15.78
2019-02-16T13:48:22.100Z,15.70
2019-02-16T13:51:37.005Z,16.15
2019-02-16T13:54:56.862Z,15.80
2019-02-16T13:58:20.129Z,16.13
2019-02-16T14:01:51.051Z,15.62
2019-02-16T14:05:12.176Z,15.46
2019-02-16T14:08:36.976Z,15.00
2019-02-16T14:12:07.448Z,14.89
2019-02-16T14:15:29.591Z,14.70
2019-02-16T14:18:35.454Z,14.31
2019-02-16T14:21:41.224Z,14.64
2019-02-16T14:24:50.283Z,14.47
2019-02-16T14:27:56.078Z,14.75
2019-02-16T14:31:01.870Z,14.77
2019-02-16T14:34:07.637Z,14.75
2019-02-16T14:37:41.704Z,14.37
2019-02-16T14:40:47.511Z,14.75
2019-02-16T14:43:53.345Z,14.26
2019-02-16T14:46:59.335Z,14.27
2019-02-16T14:50:05.527Z,14.02
2019-02-16T14:53:11.479Z,13.45
2019-02-16T14:56:17.262Z,13.78
2019-02-16T14:59:23.182Z,13.76
2019-02-16T15:02:28.981Z,13.93
2019-02-16T15:05:34.784Z,13.69
2019-02-16T15:08:41.658Z,13.66
2019-02-16T15:11:47.627Z,13.61
2019-02-16T15:14:53.583Z,13.70
2019-02-16T15:17:59.423Z,13.13
2019-02-16T15:21:05.241Z,13.18
2019-02-16T15:24:11.039Z,13.22
2019-02-16T15:27:16.867Z,13.29
2019-02-16T15:30:22.817Z,12.82
2019-02-16T15:33:28.617Z,12.70
2019-02-16T15:36:34.450Z,12.72
2019-02-16T15:39:40.254Z,12.26
2019-02-16T15:42:46.043Z,12.33
2019-02-16T15:45:51.842Z,12.45
2019-02-16T15:48:57.795Z,12.26
2019-02-16T15:52:03.531Z,11.97
2019-02-16T15:55:10.597Z,11.61
2019-02-16T15:58:16.385Z,11.83
2019-02-16T16:01:22.234Z,11.89
2019-02-16T16:04:28.094Z,11.88
2019-02-16T16:07:33.901Z,11.91
2019-02-16T16:10:45.380Z,11.66
2019-02-16T16:14:00.455Z,11.69
2019-02-16T16:17:24.231Z,11.49
2019-02-16T16:20:51.804Z,11.18
2019-02-16T16:24:22.522Z,11.38
2019-02-16T16:27:44.073Z,11.27
2019-02-16T16:31:01.737Z,10.97
2019-02-16T16:34:17.000Z,10.97
2019-02-16T16:37:44.439Z,11.12
2019-02-16T16:41:07.720Z,11.17
2019-02-16T16:44:29.857Z,11.09
2019-02-16T16:48:03.607Z,11.22
2019-02-16T16:51:17.548Z,10.72
2019-02-16T16:54:42.128Z,10.93
2019-02-16T16:58:05.798Z,11.09
2019-02-16T17:01:29.422Z,10.89
2019-02-16T17:04:54.149Z,11.02
2019-02-16T17:08:19.483Z,11.04
2019-02-16T17:11:44.140Z,10.99
2019-02-16T17:15:11.820Z,10.88
2019-02-16T17:18:30.415Z,11.00
2019-02-16T17:21:53.780Z,10.80
2019-02-16T17:25:24.185Z,10.95
2019-02-16T17:28:41.760Z,10.98
2019-02-16T17:32:07.086Z,10.99
2019-02-16T17:35:21.422Z,10.82
2019-02-16T17:38:33.231Z,10.77
2019-02-16T17:41:55.674Z,10.83
2019-02-16T17:45:20.290Z,10.66
2019-02-16T17:48:43.524Z,10.81
2019-02-16T17:52:10.912Z,10.82
2019-02-16T17:55:34.273Z,10.74
2019-02-16T17:58:59.014Z,10.74
2019-02-16T18:02:15.572Z,10.41
2019-02-16T18:05:39.104Z,10.56
2019-02-16T18:09:02.229Z,10.77
2019-02-16T18:12:37.825Z,10.78
2019-02-16T18:15:58.468Z,10.61
2019-02-16T18:19:09.570Z,10.52
2019-02-16T18:22:22.363Z,10.56
2019-02-16T18:25:44.361Z,10.59
2019-02-16T18:29:14.909Z,10.51
2019-02-16T18:32:38.934Z,10.55
2019-02-16T18:36:00.791Z,10.38
2019-02-16T18:39:30.227Z,10.38
2019-02-16T18:42:53.857Z,10.29
2019-02-16T18:46:21.358Z,10.30
2019-02-16T18:49:44.946Z,9.84
2019-02-16T18:53:21.656Z,9.74
2019-02-16T18:56:55.361Z,9.95
2019-02-16T19:00:25.803Z,9.26
2019-02-16T19:03:50.448Z,8.70
2019-02-16T19:07:01.705Z,9.23
2019-02-16T19:10:38.696Z,9.36
2019-02-16T19:13:55.313Z,9.46
2019-02-16T19:17:29.522Z,8.95
2019-02-16T19:20:49.009Z,8.96
2019-02-16T19:24:01.152Z,9.01
2019-02-16T19:27:25.874Z,8.86
2019-02-16T19:30:45.720Z,8.90
2019-02-16T19:34:13.414Z,8.91
2019-02-16T19:37:34.101Z,8.92
2019-02-16T19:40:46.497Z,8.67
2019-02-16T19:44:14.976Z,9.20
2019-02-16T19:47:32.125Z,9.35
2019-02-16T19:51:06.037Z,9.16
2019-02-16T19:54:30.661Z,9.03
2019-02-16T19:57:53.767Z,8.93
2019-02-16T20:01:24.612Z,9.28
2019-02-16T20:04:50.160Z,9.07
2019-02-16T20:08:20.848Z,8.97
2019-02-16T20:11:48.716Z,9.22
2019-02-16T20:15:04.365Z,9.12
2019-02-16T20:18:18.090Z,9.30
2019-02-16T20:22:01.316Z,8.88
2019-02-16T20:25:30.063Z,8.53
2019-02-16T20:28:57.461Z,8.59
2019-02-16T20:32:18.793Z,9.00
2019-02-16T20:35:49.739Z,9.11
2019-02-16T20:39:20.248Z,8.67
2019-02-16T20:42:36.435Z,8.63
2019-02-16T20:45:55.363Z,8.49
2019-02-16T20:49:20.085Z,7.89
2019-02-16T20:52:48.024Z,8.19
2019-02-16T20:56:12.639Z,8.19
2019-02-16T20:59:38.117Z,8.31
2019-02-16T21:03:05.515Z,8.58
2019-02-16T21:06:30.171Z,8.59
2019-02-16T21:10:13.338Z,8.01
2019-02-16T21:13:41.028Z,8.57
2019-02-16T21:17:23.853Z,8.51
2019-02-16T21:20:47.308Z,8.59
2019-02-16T21:24:14.931Z,8.53
2019-02-16T21:27:57.721Z,8.51
2019-02-16T21:31:08.496Z,8.71
2019-02-16T21:34:31.730Z,8.83
2019-02-16T21:37:59.121Z,8.92
2019-02-16T21:41:29.860Z,8.96
2019-02-16T21:44:44.282Z,8.74
2019-02-16T21:48:18.338Z,8.57
2019-02-16T21:51:41.785Z,8.33
2019-02-16T21:54:59.589Z,7.95
2019-02-16T21:58:11.352Z,8.00
2019-02-16T22:01:30.413Z,8.20
2019-02-16T22:04:53.906Z,8.29
2019-02-16T22:08:24.337Z,8.02
2019-02-16T22:11:36.849Z,8.06
2019-02-16T22:14:42.659Z,8.15
2019-02-16T22:17:49.563Z,8.00
2019-02-16T22:20:55.358Z,7.73
2019-02-16T22:24:01.281Z,8.05
2019-02-16T22:27:07.082Z,8.23
2019-02-16T22:30:13.113Z,8.17
2019-02-16T22:33:18.901Z,7.90
2019-02-16T22:36:24.687Z,7.93
2019-02-16T22:39:30.467Z,7.61
2019-02-16T22:42:36.279Z,8.03
2019-02-16T22:45:42.090Z,8.22
2019-02-16T22:48:47.892Z,8.13
2019-02-16T22:51:53.803Z,8.24
2019-02-16T22:55:00.759Z,8.08
2019-02-16T22:58:06.582Z,7.72
2019-02-16T23:01:12.703Z,7.77
2019-02-16T23:04:18.825Z,7.61
2019-02-16T23:07:25.760Z,7.78
2019-02-16T23:10:31.949Z,7.73
2019-02-16T23:13:37.746Z,7.69
2019-02-16T23:16:43.770Z,7.67
2019-02-16T23:19:49.548Z,7.71
2019-02-16T23:22:55.435Z,7.70
2019-02-16T23:26:01.330Z,7.55
2019-02-16T23:29:07.268Z,7.59
2019-02-16T23:32:13.240Z,7.45
2019-02-16T23:35:19.018Z,7.59
2019-02-16T23:38:24.799Z,7.67
2019-02-16T23:41:30.569Z,7.58
2019-02-16T23:44:36.414Z,7.48
2019-02-16T23:47:42.206Z,7.15
2019-02-16T23:50:47.996Z,7.48
2019-02-16T23:53:53.761Z,7.16
2019-02-16T23:56:59.558Z,7.35
